Time;durP1;ratioP1;P1;durP2;ratioP2;P2;SDS_P1;SDS_P2;PMS_P1;PMS_P2;Temp;Humidity;BMP_temperature;BMP_pressure;BME280_temperature;BME280_humidity;BME280_pressure;Samples;Min_cycle;Max_cycle;Signal;HPM_P1;HPM_P2
2021/12/23 00:00:01;;;;;;;30.53;15.63;;;-1.70;99.90;;;;;;5059299;28;20208;-40
2021/12/23 00:02:28;;;;;;;29.17;15.17;;;-1.70;99.90;;;;;;5061423;28;20950;-40
2021/12/23 00:04:55;;;;;;;27.17;12.73;;;-1.70;99.90;;;;;;5064802;28;20255;-40
2021/12/23 00:07:22;;;;;;;23.07;12.47;;;-1.70;99.90;;;;;;5070510;28;20247;-40
2021/12/23 00:10:06;;;;;;;23.03;12.43;;;-1.70;99.90;;;;;;5058236;28;20847;-40
2021/12/23 00:12:34;;;;;;;21.73;11.73;;;-1.70;99.90;;;;;;5058205;28;20212;-40
2021/12/23 00:15:04;;;;;;;23.97;12.67;;;-1.70;99.90;;;;;;5051658;28;20227;-40
2021/12/23 00:17:55;;;;;;;22.43;12.03;;;-1.70;99.90;;;;;;5048111;28;20211;-41
2021/12/23 00:23:28;;;;;;;22.50;12.40;;;-1.60;99.90;;;;;;5077030;28;20303;-40
2021/12/23 00:26:03;;;;;;;18.60;10.90;;;-1.60;99.90;;;;;;5064112;28;20242;-41
2021/12/23 00:28:31;;;;;;;25.37;12.07;;;-1.60;99.90;;;;;;5047246;28;20585;-40
2021/12/23 00:31:00;;;;;;;20.13;12.40;;;-1.60;99.90;;;;;;5071813;28;20227;-40
2021/12/23 00:33:28;;;;;;;21.37;12.10;;;-1.60;99.90;;;;;;5050780;28;20215;-40
2021/12/23 00:35:55;;;;;;;21.93;11.63;;;-1.60;99.90;;;;;;5067996;28;20611;-40
2021/12/23 00:38:28;;;;;;;23.83;11.37;;;-1.60;99.90;;;;;;5065025;27;20204;-40
2021/12/23 00:40:55;;;;;;;22.13;11.77;;;-1.60;99.90;;;;;;5075577;28;20810;-40
2021/12/23 00:43:23;;;;;;;25.53;12.10;;;-1.60;99.90;;;;;;5083013;28;20231;-40
2021/12/23 00:45:50;;;;;;;24.77;12.40;;;-1.60;99.90;;;;;;5064234;28;20252;-40
2021/12/23 00:48:19;;;;;;;22.80;12.67;;;-1.60;99.90;;;;;;5058850;28;20200;-40
2021/12/23 00:50:47;;;;;;;21.77;12.33;;;-1.60;99.90;;;;;;5078231;28;20682;-40
2021/12/23 00:53:18;;;;;;;18.40;11.30;;;-1.60;99.90;;;;;;5054381;28;20209;-40
2021/12/23 00:55:45;;;;;;;21.17;11.63;;;-1.60;99.90;;;;;;5074284;28;20299;-41
2021/12/23 00:58:12;;;;;;;19.70;10.90;;;-1.60;99.90;;;;;;5071094;28;20878;-40
2021/12/23 01:00:39;;;;;;;20.33;11.77;;;-1.50;99.90;;;;;;5063888;28;20697;-41
2021/12/23 01:03:06;;;;;;;20.73;12.40;;;-1.50;99.90;;;;;;5049206;28;20204;-40
2021/12/23 01:05:35;;;;;;;18.70;11.10;;;-1.50;99.90;;;;;;5056512;28;20273;-41
2021/12/23 01:08:02;;;;;;;18.87;11.83;;;-1.50;99.90;;;;;;5075978;28;20883;-40
2021/12/23 01:10:29;;;;;;;19.17;11.50;;;-1.50;99.90;;;;;;5071405;28;20216;-40
2021/12/23 01:13:00;;;;;;;20.87;12.03;;;-1.50;99.90;;;;;;5079604;27;20284;-40
2021/12/23 01:18:18;;;;;;;17.77;10.67;;;-1.50;99.90;;;;;;5065836;28;20203;-41
2021/12/23 01:20:52;;;;;;;19.87;11.33;;;-1.50;99.90;;;;;;5069372;28;20208;-40
2021/12/23 01:23:20;;;;;;;20.30;11.30;;;-1.50;99.90;;;;;;5055967;28;20266;-40
2021/12/23 01:25:48;;;;;;;20.80;12.10;;;-1.50;99.90;;;;;;5073293;27;20701;-40
2021/12/23 01:28:15;;;;;;;17.70;11.30;;;-1.50;99.90;;;;;;5061685;27;20523;-40
2021/12/23 01:30:42;;;;;;;19.87;10.60;;;-1.50;99.90;;;;;;5084807;28;20223;-40
2021/12/23 01:33:10;;;;;;;17.97;10.60;;;-1.50;99.90;;;;;;5052789;28;20199;-40
2021/12/23 01:35:39;;;;;;;19.23;10.77;;;-1.50;99.90;;;;;;5059767;28;20231;-40
2021/12/23 01:38:09;;;;;;;22.43;11.43;;;-1.50;99.90;;;;;;5080554;28;20289;-40
2021/12/23 01:40:36;;;;;;;22.43;11.33;;;-1.50;99.90;;;;;;5080008;28;20654;-40
2021/12/23 01:43:04;;;;;;;25.53;11.80;;;-1.60;99.90;;;;;;5067911;28;20211;-40
2021/12/23 01:45:33;;;;;;;19.17;10.70;;;-1.60;99.90;;;;;;5077090;28;20232;-40
2021/12/23 01:48:01;;;;;;;23.10;12.03;;;-1.60;99.90;;;;;;5060861;28;20380;-40
2021/12/23 01:50:29;;;;;;;22.00;11.60;;;-1.50;99.90;;;;;;5062914;28;20947;-40
2021/12/23 01:52:57;;;;;;;22.93;11.50;;;-1.60;99.90;;;;;;5074242;28;20214;-40
2021/12/23 01:55:26;;;;;;;21.93;11.37;;;-1.50;99.90;;;;;;5079288;28;20294;-40
2021/12/23 01:57:53;;;;;;;17.57;10.93;;;-1.50;99.90;;;;;;5058861;28;20200;-40
2021/12/23 02:00:26;;;;;;;19.33;10.53;;;-1.50;99.90;;;;;;5069277;28;20235;-40
2021/12/23 02:02:54;;;;;;;17.30;11.17;;;-1.50;99.90;;;;;;5051966;28;20214;-40
2021/12/23 02:05:21;;;;;;;22.87;10.83;;;-1.50;99.90;;;;;;5057720;28;20732;-40
2021/12/23 02:07:48;;;;;;;20.73;10.93;;;-1.50;99.90;;;;;;5055950;28;20200;-40
2021/12/23 02:10:16;;;;;;;20.50;12.07;;;-1.50;99.90;;;;;;5082839;27;20212;-40
2021/12/23 02:12:45;;;;;;;18.77;10.43;;;-1.50;99.90;;;;;;5069723;28;21024;-40
2021/12/23 02:15:13;;;;;;;18.63;12.07;;;-1.40;99.90;;;;;;5077528;28;20223;-39
2021/12/23 02:17:41;;;;;;;18.23;10.33;;;-1.40;99.90;;;;;;5062185;28;20214;-40
2021/12/23 02:20:12;;;;;;;20.93;11.03;;;-1.40;99.90;;;;;;5061983;28;20207;-40
2021/12/23 02:22:41;;;;;;;21.27;12.37;;;-1.40;99.90;;;;;;5046760;28;20791;-40
2021/12/23 02:25:09;;;;;;;18.33;11.27;;;-1.40;99.90;;;;;;5056370;28;20228;-40
2021/12/23 02:27:37;;;;;;;18.53;11.53;;;-1.40;99.90;;;;;;5072783;27;20210;-40
2021/12/23 02:30:06;;;;;;;19.70;11.10;;;-1.40;99.90;;;;;;5068463;28;20212;-40
2021/12/23 02:32:36;;;;;;;18.03;11.10;;;-1.40;99.90;;;;;;5062779;28;20220;-40
2021/12/23 02:35:03;;;;;;;19.50;11.10;;;-1.40;99.90;;;;;;5062471;27;20228;-40
2021/12/23 02:37:32;;;;;;;21.30;11.27;;;-1.30;99.90;;;;;;5044208;28;20215;-40
2021/12/23 02:39:59;;;;;;;18.80;11.37;;;-1.40;99.90;;;;;;5071354;27;20731;-40
2021/12/23 02:42:26;;;;;;;17.93;9.87;;;-1.40;99.90;;;;;;5078349;28;20201;-40
2021/12/23 02:44:54;;;;;;;18.07;10.77;;;-1.30;99.90;;;;;;5062583;28;20234;-40
2021/12/23 02:47:21;;;;;;;18.73;11.13;;;-1.30;99.90;;;;;;5076227;28;20674;-40
2021/12/23 02:49:48;;;;;;;17.50;11.07;;;-1.30;99.90;;;;;;5052032;28;20846;-40
2021/12/23 02:52:15;;;;;;;17.37;11.30;;;-1.30;99.90;;;;;;5063318;28;20314;-39
2021/12/23 02:54:44;;;;;;;17.93;10.40;;;-1.30;99.90;;;;;;5069840;28;20216;-40
2021/12/23 02:57:11;;;;;;;18.23;10.67;;;-1.30;99.90;;;;;;5076625;28;20208;-40
2021/12/23 02:59:38;;;;;;;20.47;12.13;;;-1.30;99.90;;;;;;5061858;27;20219;-40
2021/12/23 03:02:05;;;;;;;21.57;11.63;;;-1.30;99.90;;;;;;5060751;28;20207;-40
2021/12/23 03:04:32;;;;;;;15.63;9.77;;;-1.30;99.90;;;;;;5067414;28;20985;-40
2021/12/23 03:06:59;;;;;;;17.97;10.07;;;-1.30;99.90;;;;;;5059622;28;20203;-40
2021/12/23 03:09:26;;;;;;;19.93;9.77;;;-1.30;99.90;;;;;;5042414;28;20211;-40
2021/12/23 03:11:55;;;;;;;20.23;10.97;;;-1.30;99.90;;;;;;5059790;28;20220;-40
2021/12/23 03:14:22;;;;;;;16.77;10.97;;;-1.30;99.90;;;;;;5075174;28;20223;-40
2021/12/23 03:16:50;;;;;;;19.20;10.63;;;-1.30;99.90;;;;;;5084424;28;20198;-40
2021/12/23 03:19:17;;;;;;;14.70;9.73;;;-1.30;99.90;;;;;;5061167;28;20220;-40
2021/12/23 03:21:44;;;;;;;20.23;11.33;;;-1.30;99.90;;;;;;5056807;28;20215;-40
2021/12/23 03:24:11;;;;;;;15.17;10.40;;;-1.30;99.90;;;;;;5049392;28;20206;-40
2021/12/23 03:26:39;;;;;;;19.67;11.40;;;-1.30;99.90;;;;;;5062724;28;20207;-40
2021/12/23 03:29:11;;;;;;;21.23;10.97;;;-1.30;99.90;;;;;;5083684;28;20570;-40
2021/12/23 03:31:38;;;;;;;18.37;9.77;;;-1.30;99.90;;;;;;5069207;28;20211;-40
2021/12/23 03:34:05;;;;;;;20.70;10.60;;;-1.30;99.90;;;;;;5071413;28;20601;-40
2021/12/23 03:36:44;;;;;;;17.70;11.10;;;-1.30;99.90;;;;;;5059396;28;20220;-40
2021/12/23 03:39:11;;;;;;;18.90;10.57;;;-1.30;99.90;;;;;;5056112;28;20207;-39
2021/12/23 03:41:38;;;;;;;18.13;11.40;;;-1.30;99.90;;;;;;5046037;28;20227;-40
2021/12/23 03:44:07;;;;;;;17.93;10.90;;;-1.20;99.90;;;;;;5068455;28;20208;-40
2021/12/23 03:46:37;;;;;;;17.93;11.07;;;-1.20;99.90;;;;;;5070563;28;20216;-45
2021/12/23 03:49:05;;;;;;;18.10;10.77;;;-1.20;99.90;;;;;;5057253;28;20268;-45
2021/12/23 03:51:32;;;;;;;16.77;10.80;;;-1.30;99.90;;;;;;5078150;28;20212;-45
2021/12/23 03:53:59;;;;;;;18.33;11.03;;;-1.20;99.90;;;;;;5047147;28;20215;-45
2021/12/23 03:56:26;;;;;;;21.17;11.70;;;-1.20;99.90;;;;;;5058199;28;20196;-45
2021/12/23 03:58:54;;;;;;;19.13;11.00;;;-1.20;99.90;;;;;;5074624;28;20231;-45
2021/12/23 04:01:24;;;;;;;18.00;11.53;;;-1.20;99.90;;;;;;5054695;28;20208;-45
2021/12/23 04:03:51;;;;;;;18.53;11.40;;;-1.20;99.90;;;;;;5076424;28;21733;-45
2021/12/23 04:06:18;;;;;;;19.47;11.43;;;-1.20;99.90;;;;;;5070591;28;20227;-45
2021/12/23 04:08:46;;;;;;;20.03;11.93;;;-1.20;99.90;;;;;;5086860;27;20217;-45
2021/12/23 04:11:13;;;;;;;23.43;12.17;;;-1.20;99.90;;;;;;5049507;28;20219;-45
2021/12/23 04:13:40;;;;;;;19.77;10.90;;;-1.10;99.90;;;;;;5074180;28;20206;-45
2021/12/23 04:16:07;;;;;;;17.93;11.17;;;-1.10;99.90;;;;;;5064457;28;20804;-45
2021/12/23 04:18:36;;;;;;;18.30;10.93;;;-1.10;99.90;;;;;;5082196;28;20680;-45
2021/12/23 04:21:03;;;;;;;23.50;10.93;;;-1.10;99.90;;;;;;5057040;27;20202;-45
2021/12/23 04:23:33;;;;;;;21.13;11.97;;;-1.10;99.90;;;;;;5070835;28;20195;-46
2021/12/23 04:26:00;;;;;;;18.30;11.90;;;-1.00;99.90;;;;;;5046624;27;20965;-45
2021/12/23 04:28:27;;;;;;;19.03;10.97;;;-1.00;99.90;;;;;;5059366;28;20203;-45
2021/12/23 04:30:54;;;;;;;25.47;11.90;;;-1.10;99.90;;;;;;5078139;28;20239;-45
2021/12/23 04:33:22;;;;;;;19.10;10.60;;;-1.10;99.90;;;;;;5064387;28;20224;-45
2021/12/23 04:35:50;;;;;;;15.73;10.60;;;-1.00;99.90;;;;;;5072853;28;20215;-45
2021/12/23 04:38:17;;;;;;;17.73;10.63;;;-1.00;99.90;;;;;;5078059;27;20215;-45
2021/12/23 04:40:44;;;;;;;17.50;9.90;;;-1.00;99.90;;;;;;5056369;28;20203;-45
2021/12/23 04:43:11;;;;;;;19.60;11.50;;;-1.00;99.90;;;;;;5073381;28;20211;-45
2021/12/23 04:45:38;;;;;;;18.33;11.23;;;-1.00;99.90;;;;;;5052285;28;20228;-45
2021/12/23 04:48:06;;;;;;;19.13;11.40;;;-1.00;99.90;;;;;;5080025;28;20216;-45
2021/12/23 04:50:33;;;;;;;18.70;11.37;;;-1.00;99.90;;;;;;5067556;28;20196;-45
2021/12/23 04:53:01;;;;;;;18.93;10.83;;;-1.00;99.90;;;;;;5082921;28;20221;-45
2021/12/23 04:55:30;;;;;;;16.40;11.33;;;-0.90;99.90;;;;;;5072433;28;20232;-45
2021/12/23 04:57:57;;;;;;;17.77;10.77;;;-1.00;99.90;;;;;;5057076;28;20434;-45
2021/12/23 05:00:25;;;;;;;24.27;12.87;;;-1.00;99.90;;;;;;5053681;28;20213;-45
2021/12/23 05:02:52;;;;;;;17.07;11.20;;;-1.00;99.90;;;;;;5077755;27;20196;-45
2021/12/23 05:05:19;;;;;;;18.27;10.83;;;-0.90;99.90;;;;;;5066043;28;20232;-45
2021/12/23 05:07:46;;;;;;;18.87;10.77;;;-0.90;99.90;;;;;;5072086;27;20208;-45
2021/12/23 05:10:16;;;;;;;18.47;11.00;;;-0.90;99.90;;;;;;5078877;28;20221;-45
2021/12/23 05:12:45;;;;;;;20.60;10.90;;;-0.90;99.90;;;;;;5052410;27;20233;-46
2021/12/23 05:15:17;;;;;;;20.23;12.43;;;-0.90;99.90;;;;;;5063761;28;20323;-45
2021/12/23 05:17:44;;;;;;;17.13;11.23;;;-0.80;99.90;;;;;;5053642;28;20205;-45
2021/12/23 05:20:14;;;;;;;19.57;12.50;;;-0.90;99.90;;;;;;5072547;28;20196;-45
2021/12/23 05:22:41;;;;;;;18.83;11.23;;;-0.90;99.90;;;;;;5058212;28;20208;-45
2021/12/23 05:25:09;;;;;;;17.50;11.67;;;-0.90;99.90;;;;;;5082718;28;20217;-45
2021/12/23 05:27:38;;;;;;;16.97;10.73;;;-0.90;99.90;;;;;;5064051;28;20208;-46
2021/12/23 05:30:05;;;;;;;23.73;11.50;;;-0.90;99.90;;;;;;5049476;28;20208;-45
2021/12/23 05:32:32;;;;;;;18.60;10.97;;;-0.80;99.90;;;;;;5052709;27;20259;-45
2021/12/23 05:34:59;;;;;;;18.40;10.30;;;-0.80;99.90;;;;;;5063927;28;20235;-45
2021/12/23 05:37:26;;;;;;;18.23;10.97;;;-0.80;99.90;;;;;;5062342;28;20230;-45
2021/12/23 05:39:53;;;;;;;17.40;10.33;;;-0.80;99.90;;;;;;5076424;28;20255;-40
2021/12/23 05:42:20;;;;;;;17.03;11.00;;;-0.80;99.90;;;;;;5050954;28;20211;-40
2021/12/23 05:44:48;;;;;;;17.67;11.53;;;-0.80;99.90;;;;;;5053736;28;20227;-40
2021/12/23 05:47:15;;;;;;;20.27;11.50;;;-0.80;99.90;;;;;;5053688;28;20203;-40
2021/12/23 05:49:42;;;;;;;17.43;11.13;;;-0.80;99.90;;;;;;5069743;28;20195;-40
2021/12/23 05:52:09;;;;;;;17.50;11.33;;;-0.80;99.90;;;;;;5073970;28;20250;-40
2021/12/23 05:54:36;;;;;;;23.10;11.00;;;-0.80;99.90;;;;;;5053762;28;20235;-40
2021/12/23 05:57:03;;;;;;;18.53;10.60;;;-0.80;99.90;;;;;;5067156;28;20977;-40
2021/12/23 05:59:31;;;;;;;18.10;10.40;;;-0.80;99.90;;;;;;5063274;28;20214;-40
2021/12/23 06:02:00;;;;;;;16.37;10.67;;;-0.80;99.90;;;;;;5032151;28;20649;-40
2021/12/23 06:04:27;;;;;;;18.70;11.23;;;-0.80;99.90;;;;;;5077993;28;20216;-40
2021/12/23 06:06:55;;;;;;;18.27;11.43;;;-0.80;99.90;;;;;;5058540;28;20212;-40
2021/12/23 06:09:22;;;;;;;17.37;10.57;;;-0.80;99.90;;;;;;5066671;28;20776;-40
2021/12/23 06:11:49;;;;;;;21.20;12.63;;;-0.90;99.90;;;;;;5071187;28;20196;-40
2021/12/23 06:14:17;;;;;;;15.60;10.40;;;-0.80;99.90;;;;;;5059237;28;20934;-40
2021/12/23 06:16:43;;;;;;;16.73;11.00;;;-0.80;99.90;;;;;;5025904;28;20208;-40
2021/12/23 06:19:12;;;;;;;18.67;11.50;;;-0.80;99.90;;;;;;5048676;28;20216;-40
2021/12/23 06:21:39;;;;;;;17.73;11.43;;;-0.80;99.90;;;;;;5078885;28;21135;-40
2021/12/23 06:24:06;;;;;;;18.37;11.17;;;-0.90;99.90;;;;;;5064717;28;20276;-40
2021/12/23 06:26:34;;;;;;;20.17;11.73;;;-0.90;99.90;;;;;;5043142;28;20240;-40
2021/12/23 06:29:01;;;;;;;19.23;10.50;;;-0.80;99.90;;;;;;5074980;28;20260;-40
2021/12/23 06:31:28;;;;;;;17.37;11.00;;;-0.80;99.90;;;;;;5043209;28;20211;-40
2021/12/23 06:33:55;;;;;;;14.50;10.20;;;-0.80;99.90;;;;;;5054085;28;20224;-40
2021/12/23 06:36:24;;;;;;;17.20;10.33;;;-0.90;99.90;;;;;;5072155;27;20223;-40
2021/12/23 06:38:51;;;;;;;16.63;10.47;;;-0.90;99.90;;;;;;5053776;28;20203;-40
2021/12/23 06:41:18;;;;;;;16.10;10.77;;;-0.80;99.90;;;;;;5075428;28;20725;-40
2021/12/23 06:43:45;;;;;;;16.43;10.97;;;-0.80;99.90;;;;;;5043991;28;20232;-40
2021/12/23 06:46:12;;;;;;;17.37;10.53;;;-0.80;99.90;;;;;;5055620;28;21300;-40
2021/12/23 06:48:39;;;;;;;16.10;9.87;;;-0.80;99.90;;;;;;5047085;27;20863;-40
2021/12/23 06:51:06;;;;;;;20.63;11.80;;;-0.80;99.90;;;;;;5076032;28;20229;-40
2021/12/23 06:53:34;;;;;;;17.60;11.07;;;-0.80;99.90;;;;;;5050391;28;20226;-40
2021/12/23 06:56:02;;;;;;;20.27;11.27;;;-0.80;99.90;;;;;;5077403;28;20318;-40
2021/12/23 06:58:31;;;;;;;21.07;11.37;;;-0.80;99.90;;;;;;5077804;28;20943;-40
2021/12/23 07:00:58;;;;;;;18.50;10.63;;;-0.80;99.90;;;;;;5043482;28;20700;-40
2021/12/23 07:03:32;;;;;;;20.10;11.80;;;-0.70;99.90;;;;;;5057315;28;20230;-40
2021/12/23 07:06:05;;;;;;;16.17;10.83;;;-0.70;99.90;;;;;;5062944;28;20959;-40
2021/12/23 07:08:36;;;;;;;15.70;10.80;;;-0.70;99.90;;;;;;5065156;28;20270;-40
2021/12/23 07:11:04;;;;;;;20.80;11.53;;;-0.70;99.90;;;;;;5073861;27;20294;-39
2021/12/23 07:13:32;;;;;;;17.23;11.27;;;-0.70;99.90;;;;;;5063666;28;20230;-40
2021/12/23 07:16:01;;;;;;;17.10;11.50;;;-0.70;99.90;;;;;;5072501;28;20225;-40
2021/12/23 07:18:28;;;;;;;18.60;11.40;;;-0.70;99.90;;;;;;5038233;28;20203;-40
2021/12/23 07:20:55;;;;;;;20.03;11.97;;;-0.70;99.90;;;;;;5071878;28;20219;-40
2021/12/23 07:23:22;;;;;;;17.27;10.57;;;-0.70;99.90;;;;;;5067098;28;20205;-40
2021/12/23 07:25:50;;;;;;;17.77;10.70;;;-0.60;99.90;;;;;;5062478;28;20249;-40
2021/12/23 07:28:17;;;;;;;15.77;9.80;;;-0.60;99.90;;;;;;5069713;28;20584;-40
2021/12/23 07:30:44;;;;;;;19.20;11.47;;;-0.60;99.90;;;;;;5083523;28;20240;-40
2021/12/23 07:33:11;;;;;;;17.03;11.47;;;-0.60;99.90;;;;;;5052374;28;20223;-40
2021/12/23 07:35:38;;;;;;;18.90;10.73;;;-0.60;99.90;;;;;;5057854;28;21060;-38
2021/12/23 07:38:06;;;;;;;20.43;11.83;;;-0.60;99.90;;;;;;5055186;28;20219;-38
2021/12/23 07:40:33;;;;;;;19.03;11.73;;;-0.60;99.90;;;;;;5066536;28;20204;-37
2021/12/23 07:43:10;;;;;;;17.20;10.87;;;-0.60;99.90;;;;;;5077540;28;20338;-37
2021/12/23 07:45:39;;;;;;;18.47;10.90;;;-0.60;99.90;;;;;;5069318;28;20862;-38
2021/12/23 07:48:06;;;;;;;18.60;11.13;;;-0.60;99.90;;;;;;5059524;28;20213;-38
2021/12/23 07:50:32;;;;;;;19.90;11.73;;;-0.60;99.90;;;;;;5061779;28;20210;-37
2021/12/23 07:52:59;;;;;;;17.43;11.33;;;-0.60;99.90;;;;;;5056942;28;21143;-37
2021/12/23 07:55:26;;;;;;;18.37;12.17;;;-0.60;99.90;;;;;;5074302;28;20216;-37
2021/12/23 07:57:53;;;;;;;21.80;11.60;;;-0.60;99.90;;;;;;5055213;28;20312;-37
2021/12/23 08:00:22;;;;;;;20.93;12.60;;;-0.60;99.90;;;;;;5073950;28;20296;-41
2021/12/23 08:02:49;;;;;;;17.47;11.97;;;-0.50;99.90;;;;;;5047687;28;20214;-37
2021/12/23 08:05:16;;;;;;;17.67;11.23;;;-0.50;99.90;;;;;;5067921;28;20227;-37
2021/12/23 08:07:43;;;;;;;21.93;13.27;;;-0.60;99.90;;;;;;5035659;28;20769;-38
2021/12/23 08:10:10;;;;;;;18.70;11.90;;;-0.50;99.90;;;;;;5054154;28;20299;-37
2021/12/23 08:12:37;;;;;;;20.30;12.30;;;-0.60;99.90;;;;;;5077767;28;20204;-37
2021/12/23 08:15:05;;;;;;;22.10;11.47;;;-0.50;99.90;;;;;;5064714;28;20225;-38
2021/12/23 08:17:34;;;;;;;17.57;11.90;;;-0.50;99.90;;;;;;5072856;28;20207;-37
2021/12/23 08:20:01;;;;;;;17.70;11.93;;;-0.50;99.90;;;;;;5050692;28;20215;-38
2021/12/23 08:22:28;;;;;;;18.40;12.13;;;-0.50;99.90;;;;;;5063513;28;20198;-38
2021/12/23 08:24:55;;;;;;;19.00;12.43;;;-0.50;99.90;;;;;;5063037;28;20233;-38
2021/12/23 08:27:25;;;;;;;16.80;11.17;;;-0.50;99.90;;;;;;5076627;28;20199;-37
2021/12/23 08:29:52;;;;;;;18.57;11.63;;;-0.50;99.90;;;;;;5058499;28;20204;-37
2021/12/23 08:32:20;;;;;;;18.73;12.37;;;-0.40;99.90;;;;;;5057808;28;20209;-37
2021/12/23 08:34:49;;;;;;;23.23;12.60;;;-0.50;99.90;;;;;;5048057;28;20227;-37
2021/12/23 08:37:16;;;;;;;16.80;11.87;;;-0.40;99.90;;;;;;5042637;28;20211;-37
2021/12/23 08:39:44;;;;;;;17.07;11.83;;;-0.40;99.90;;;;;;5062968;28;25789;-37
2021/12/23 08:42:11;;;;;;;21.40;12.60;;;-0.40;99.90;;;;;;5076498;28;20202;-37
2021/12/23 08:44:40;;;;;;;24.50;16.30;;;-0.30;99.90;;;;;;5054378;28;20228;-37
2021/12/23 08:47:07;;;;;;;22.77;14.20;;;-0.30;99.90;;;;;;5069428;28;20212;-37
2021/12/23 08:49:34;;;;;;;21.80;13.53;;;-0.30;99.90;;;;;;5064714;28;20223;-37
2021/12/23 08:52:03;;;;;;;17.73;11.20;;;-0.20;99.90;;;;;;5063902;28;20326;-45
2021/12/23 08:54:30;;;;;;;17.83;12.03;;;-0.20;99.90;;;;;;5059750;28;20644;-45
2021/12/23 08:56:57;;;;;;;21.57;13.67;;;-0.20;99.90;;;;;;5054839;28;20212;-45
2021/12/23 08:59:24;;;;;;;30.40;16.43;;;-0.20;99.90;;;;;;5075285;28;20199;-45
2021/12/23 09:01:51;;;;;;;23.50;13.03;;;-0.20;99.90;;;;;;5047653;28;20266;-45
2021/12/23 09:04:18;;;;;;;18.73;11.70;;;-0.20;99.90;;;;;;5054116;28;20211;-45
2021/12/23 09:06:45;;;;;;;21.00;12.40;;;-0.10;99.90;;;;;;5061194;28;20323;-37
2021/12/23 09:09:13;;;;;;;22.37;12.60;;;-0.10;99.90;;;;;;5050042;28;20730;-38
2021/12/23 09:11:40;;;;;;;19.77;11.97;;;-0.20;99.90;;;;;;5050269;28;20220;-38
2021/12/23 09:14:08;;;;;;;21.13;12.33;;;-0.10;99.90;;;;;;5065637;27;20220;-38
2021/12/23 09:16:35;;;;;;;18.13;10.93;;;-0.20;99.90;;;;;;5088157;27;20214;-37
2021/12/23 09:19:02;;;;;;;20.60;11.67;;;-0.10;99.90;;;;;;5071427;27;20218;-38
2021/12/23 09:21:29;;;;;;;18.70;11.53;;;-0.10;99.90;;;;;;5054344;28;20212;-37
2021/12/23 09:23:56;;;;;;;19.07;11.57;;;-0.10;99.90;;;;;;5058531;28;20211;-38
2021/12/23 09:26:25;;;;;;;23.60;12.60;;;-0.10;99.90;;;;;;5055184;28;20225;-37
2021/12/23 09:29:01;;;;;;;19.87;11.13;;;-0.10;99.90;;;;;;5075097;27;20203;-38
2021/12/23 09:34:12;;;;;;;17.13;11.13;;;-0.10;99.90;;;;;;5068188;28;20316;-38
2021/12/23 09:36:41;;;;;;;20.20;11.80;;;-0.10;99.90;;;;;;5057637;28;20220;-38
2021/12/23 09:39:11;;;;;;;29.07;14.57;;;0.00;99.90;;;;;;5039330;28;20201;-37
2021/12/23 09:41:41;;;;;;;23.37;13.70;;;0.00;99.90;;;;;;5062033;28;20204;-37
2021/12/23 09:44:09;;;;;;;19.50;12.40;;;0.00;99.90;;;;;;5068923;28;20207;-38
2021/12/23 09:46:38;;;;;;;20.97;12.80;;;0.10;99.90;;;;;;5066785;28;20321;-38
2021/12/23 09:49:06;;;;;;;25.53;13.87;;;0.00;99.90;;;;;;5074362;28;20214;-38
2021/12/23 09:51:35;;;;;;;21.47;12.83;;;0.10;99.90;;;;;;5057155;28;20216;-37
2021/12/23 09:54:03;;;;;;;18.83;12.47;;;0.10;99.90;;;;;;5064818;28;20232;-37
2021/12/23 09:56:33;;;;;;;19.10;12.00;;;0.10;99.90;;;;;;5065215;28;20218;-38
2021/12/23 09:59:05;;;;;;;18.43;12.23;;;0.10;99.90;;;;;;5041621;27;21239;-38
2021/12/23 10:01:34;;;;;;;15.87;11.60;;;0.10;99.90;;;;;;5059552;28;20362;-40
2021/12/23 10:04:02;;;;;;;18.37;12.10;;;0.10;99.90;;;;;;5066152;27;20201;-40
2021/12/23 10:06:29;;;;;;;19.77;12.47;;;0.10;99.90;;;;;;5078695;28;20204;-46
2021/12/23 10:08:56;;;;;;;19.53;11.80;;;0.10;99.90;;;;;;5042780;28;20226;-40
2021/12/23 10:11:31;;;;;;;20.67;11.27;;;0.20;99.90;;;;;;5066376;28;20203;-40
2021/12/23 10:30:51;;;;;;;18.20;11.03;;;0.30;99.90;;;;;;5063576;28;20209;-45
2021/12/23 10:33:43;;;;;;;16.63;11.13;;;0.30;99.90;;;;;;5042681;28;20213;-40
2021/12/23 10:38:54;;;;;;;20.83;12.00;;;0.30;99.90;;;;;;5053582;28;20240;-40
2021/12/23 10:41:24;;;;;;;19.13;12.40;;;0.30;99.90;;;;;;5039444;27;20236;-40
2021/12/23 10:43:55;;;;;;;24.50;12.67;;;0.30;99.90;;;;;;5055336;28;20643;-40
2021/12/23 10:46:26;;;;;;;18.70;12.07;;;0.40;99.90;;;;;;5069432;28;20240;-40
2021/12/23 10:49:07;;;;;;;19.47;12.80;;;0.40;99.90;;;;;;5073583;28;20244;-40
2021/12/23 10:52:00;;;;;;;20.90;12.67;;;0.40;99.90;;;;;;5065194;28;20219;-40
2021/12/23 11:00:15;;;;;;;19.40;13.03;;;1.20;99.90;;;;;;5050866;28;20217;-40
2021/12/23 11:02:57;;;;;;;19.37;13.27;;;1.20;99.90;;;;;;5045244;28;20223;-40
2021/12/23 11:05:30;;;;;;;20.63;13.17;;;1.10;99.90;;;;;;5071135;28;20241;-40
2021/12/23 11:08:03;;;;;;;22.20;12.97;;;1.00;99.90;;;;;;5039388;28;20966;-45
2021/12/23 11:11:02;;;;;;;20.50;12.33;;;0.90;99.90;;;;;;5055228;27;20265;-41
2021/12/23 11:27:38;;;;;;;20.43;12.57;;;0.80;99.90;;;;;;5063689;28;20225;-38
2021/12/23 11:36:21;;;;;;;23.70;13.00;;;0.80;99.90;;;;;;5061974;28;20227;-40
2021/12/23 11:41:36;;;;;;;18.83;12.30;;;0.90;99.90;;;;;;5033656;28;20667;-38
2021/12/23 11:44:06;;;;;;;21.03;12.90;;;0.90;99.90;;;;;;5051409;28;20308;-38
2021/12/23 11:46:38;;;;;;;25.40;14.43;;;0.80;99.90;;;;;;5059766;28;20246;-38
2021/12/23 11:49:07;;;;;;;26.20;13.50;;;0.90;99.90;;;;;;5078310;28;20664;-37
2021/12/23 11:51:45;;;;;;;22.83;13.70;;;0.90;99.90;;;;;;5069870;28;20213;-37
2021/12/23 11:54:16;;;;;;;24.73;15.10;;;0.90;99.90;;;;;;5049915;28;20225;-46
2021/12/23 11:56:47;;;;;;;24.00;14.37;;;0.90;99.90;;;;;;5061161;28;20731;-45
2021/12/23 11:59:16;;;;;;;23.73;13.57;;;0.90;99.90;;;;;;5049575;28;20206;-45
2021/12/23 12:01:46;;;;;;;24.73;14.77;;;0.90;99.90;;;;;;5055080;28;20206;-45
2021/12/23 12:04:22;;;;;;;23.20;13.17;;;0.90;99.90;;;;;;5087902;28;20275;-45
2021/12/23 12:06:51;;;;;;;22.43;13.73;;;0.90;99.90;;;;;;5068364;28;20215;-45
2021/12/23 12:09:22;;;;;;;24.30;14.67;;;0.90;99.90;;;;;;5047634;28;21378;-45
2021/12/23 12:12:07;;;;;;;21.73;14.37;;;0.90;99.90;;;;;;5058088;28;20321;-41
2021/12/23 12:14:42;;;;;;;21.90;14.07;;;0.90;99.90;;;;;;5061957;28;20233;-40
2021/12/23 12:17:36;;;;;;;32.73;14.90;;;0.90;99.90;;;;;;5044425;28;20967;-40
2021/12/23 12:20:15;;;;;;;29.50;14.43;;;0.90;99.90;;;;;;5078136;28;20204;-40
2021/12/23 12:22:54;;;;;;;35.73;14.50;;;1.30;99.90;;;;;;5062683;28;20264;-40
2021/12/23 12:25:53;;;;;;;29.27;14.63;;;1.30;99.90;;;;;;5062770;28;20224;-40
2021/12/23 12:28:27;;;;;;;23.07;14.53;;;1.20;99.90;;;;;;5044574;27;21407;-40
2021/12/23 12:30:57;;;;;;;26.83;14.50;;;1.10;99.90;;;;;;5080620;27;20197;-37
2021/12/23 12:33:39;;;;;;;25.47;15.53;;;1.10;99.90;;;;;;5055589;28;21263;-38
2021/12/23 12:36:08;;;;;;;26.00;13.97;;;1.00;99.90;;;;;;5065036;28;20235;-38
2021/12/23 12:38:38;;;;;;;25.43;14.90;;;1.00;99.90;;;;;;5024692;28;20214;-38
2021/12/23 12:41:08;;;;;;;22.40;15.20;;;1.00;99.90;;;;;;5054271;28;20991;-37
2021/12/23 12:43:51;;;;;;;27.67;15.97;;;0.90;99.90;;;;;;5038756;28;20214;-38
2021/12/23 12:46:48;;;;;;;22.37;14.43;;;1.00;99.90;;;;;;5073664;28;20220;-38
2021/12/23 12:49:22;;;;;;;24.83;14.60;;;0.90;99.90;;;;;;5046228;27;20221;-41
2021/12/23 12:51:49;;;;;;;25.93;15.03;;;1.00;99.90;;;;;;5061964;28;20211;-45
2021/12/23 12:54:26;;;;;;;22.40;14.13;;;1.00;99.90;;;;;;5068068;28;20227;-45
2021/12/23 12:56:57;;;;;;;33.00;14.77;;;1.00;99.90;;;;;;5052071;28;20208;-45
2021/12/23 12:59:26;;;;;;;25.33;15.70;;;1.00;99.90;;;;;;5046053;28;20211;-41
2021/12/23 13:01:55;;;;;;;26.80;15.77;;;1.00;99.90;;;;;;5047813;28;20637;-41
2021/12/23 13:04:23;;;;;;;25.63;15.83;;;1.00;99.90;;;;;;5064057;28;20209;-41
2021/12/23 13:06:51;;;;;;;26.47;15.07;;;0.90;99.90;;;;;;5065127;28;20280;-40
2021/12/23 13:09:24;;;;;;;23.97;14.33;;;1.00;99.90;;;;;;5066749;28;20207;-41
2021/12/23 13:11:51;;;;;;;24.83;15.33;;;0.90;99.90;;;;;;5060526;28;20216;-46
2021/12/23 13:14:24;;;;;;;23.50;15.27;;;0.90;99.90;;;;;;5049326;27;20227;-46
2021/12/23 13:16:54;;;;;;;26.33;16.20;;;0.90;99.90;;;;;;5068466;28;20207;-46
2021/12/23 13:19:23;;;;;;;27.93;15.83;;;1.00;99.90;;;;;;5089434;27;20314;-46
2021/12/23 13:21:54;;;;;;;32.13;16.53;;;1.00;99.90;;;;;;5065035;27;20205;-46
2021/12/23 13:24:22;;;;;;;24.23;15.20;;;1.00;99.90;;;;;;5066783;27;20278;-46
2021/12/23 13:26:50;;;;;;;30.80;16.97;;;0.90;99.90;;;;;;5065464;28;20207;-45
2021/12/23 13:29:17;;;;;;;38.50;18.60;;;0.90;99.90;;;;;;5050617;28;20456;-46
2021/12/23 13:31:46;;;;;;;26.57;16.07;;;0.90;99.90;;;;;;5067369;28;20209;-45
2021/12/23 13:34:19;;;;;;;28.17;16.17;;;0.90;99.90;;;;;;5069777;28;21364;-46
2021/12/23 13:36:48;;;;;;;30.93;17.17;;;0.90;99.90;;;;;;5067473;28;20222;-46